Time;durP1;ratioP1;P1;durP2;ratioP2;P2;SDS_P1;SDS_P2;PMS_P1;PMS_P2;Temp;Humidity;BMP_temperature;BMP_pressure;BME280_temperature;BME280_humidity;BME280_pressure;Samples;Min_cycle;Max_cycle;Signal;HPM_P1;HPM_P2
2023/09/07 00:00:13;;;;;;;6.75;3.80;;;18.30;99.90;;;;;;5019801;28;20091;-71
2023/09/07 00:02:38;;;;;;;6.63;4.25;;;18.30;99.90;;;;;;5036975;28;20021;-72
2023/09/07 00:05:06;;;;;;;10.43;4.05;;;18.30;99.90;;;;;;5037243;28;20022;-71
2023/09/07 00:07:31;;;;;;;6.15;4.15;;;18.30;99.90;;;;;;5037105;28;20025;-71
2023/09/07 00:09:57;;;;;;;7.22;3.92;;;18.30;99.90;;;;;;5019559;28;20111;-71
2023/09/07 00:12:22;;;;;;;9.38;3.63;;;18.30;99.90;;;;;;5020386;28;20032;-71
2023/09/07 00:14:48;;;;;;;6.65;3.22;;;18.20;99.90;;;;;;5019841;28;20034;-71
2023/09/07 00:17:13;;;;;;;9.43;3.17;;;18.20;99.90;;;;;;5020248;28;20024;-71
2023/09/07 00:19:39;;;;;;;5.22;3.92;;;18.20;99.90;;;;;;5019886;28;20029;-71
2023/09/07 00:22:04;;;;;;;7.95;3.45;;;18.20;99.90;;;;;;5019932;28;20022;-71
2023/09/07 00:24:33;;;;;;;8.07;3.75;;;18.30;99.90;;;;;;5019352;28;20025;-71
2023/09/07 00:26:59;;;;;;;8.98;3.85;;;18.30;99.90;;;;;;5036878;28;20123;-71
2023/09/07 00:29:24;;;;;;;5.97;3.33;;;18.20;99.90;;;;;;5019935;28;20057;-71
2023/09/07 00:31:50;;;;;;;5.43;3.60;;;18.10;99.90;;;;;;5019782;28;20124;-71
2023/09/07 00:34:15;;;;;;;5.38;2.92;;;17.90;99.90;;;;;;5019746;28;20048;-71
2023/09/07 00:36:42;;;;;;;4.60;3.25;;;17.90;99.90;;;;;;5019990;28;20026;-71
2023/09/07 00:39:08;;;;;;;5.82;2.90;;;17.70;99.90;;;;;;5037036;28;20024;-71
2023/09/07 00:41:33;;;;;;;5.60;3.40;;;17.60;99.90;;;;;;5019482;28;20022;-71
2023/09/07 00:43:59;;;;;;;8.40;4.15;;;17.60;99.90;;;;;;5019130;28;20025;-71
2023/09/07 00:46:25;;;;;;;6.10;3.00;;;17.60;99.90;;;;;;5036689;28;20098;-71
2023/09/07 00:48:51;;;;;;;4.28;2.95;;;17.60;99.90;;;;;;5036740;28;20110;-71
2023/09/07 00:51:16;;;;;;;6.60;2.72;;;17.60;99.90;;;;;;5019481;28;20076;-71
2023/09/07 00:53:43;;;;;;;3.75;2.80;;;17.60;99.90;;;;;;5020484;28;20140;-71
2023/09/07 00:56:08;;;;;;;5.35;3.25;;;17.70;99.90;;;;;;5019778;28;20029;-71
2023/09/07 00:58:34;;;;;;;4.65;2.95;;;17.60;99.90;;;;;;5019365;28;20032;-71
2023/09/07 01:01:00;;;;;;;10.15;3.88;;;17.60;99.90;;;;;;5019476;28;20091;-71
2023/09/07 01:03:26;;;;;;;5.47;3.20;;;17.60;99.90;;;;;;5019030;28;20032;-71
2023/09/07 01:05:54;;;;;;;7.25;3.55;;;17.50;99.90;;;;;;5019055;28;20014;-71
2023/09/07 01:08:32;;;;;;;10.05;3.40;;;17.50;99.90;;;;;;5019197;28;20017;-71
2023/09/07 01:10:58;;;;;;;4.32;3.20;;;17.60;99.90;;;;;;5039988;28;20025;-71
2023/09/07 01:13:24;;;;;;;5.53;3.50;;;17.60;99.90;;;;;;5022740;28;20043;-71
2023/09/07 01:15:50;;;;;;;8.27;4.18;;;17.50;99.90;;;;;;5040042;28;20027;-71
2023/09/07 01:18:17;;;;;;;4.55;2.53;;;17.60;99.90;;;;;;5040134;28;20029;-71
2023/09/07 01:20:45;;;;;;;3.97;2.92;;;17.60;99.90;;;;;;5022750;28;20029;-71
2023/09/07 01:23:12;;;;;;;5.80;3.38;;;17.60;99.90;;;;;;5022552;28;20025;-71
2023/09/07 01:25:40;;;;;;;5.05;3.13;;;17.50;99.90;;;;;;5040712;28;20022;-71
2023/09/07 01:28:06;;;;;;;3.78;2.78;;;17.50;99.90;;;;;;5022762;28;20034;-71
2023/09/07 01:30:34;;;;;;;6.75;3.40;;;17.50;99.90;;;;;;5040124;28;20018;-71
2023/09/07 01:33:00;;;;;;;3.42;2.33;;;17.50;99.90;;;;;;5022533;28;20029;-71
2023/09/07 01:35:26;;;;;;;5.10;2.72;;;17.30;99.90;;;;;;5039984;28;20101;-71
2023/09/07 01:37:51;;;;;;;6.50;3.25;;;17.20;99.90;;;;;;5022353;28;20065;-71
2023/09/07 01:40:17;;;;;;;6.25;3.50;;;17.20;99.90;;;;;;5022163;28;20079;-71
2023/09/07 01:42:42;;;;;;;5.63;3.58;;;17.30;99.90;;;;;;5022284;28;20022;-71
2023/09/07 01:45:08;;;;;;;7.72;3.65;;;17.30;99.90;;;;;;5022618;28;20036;-71
2023/09/07 01:47:34;;;;;;;4.50;3.25;;;17.30;99.90;;;;;;5021995;28;20017;-71
2023/09/07 01:49:59;;;;;;;5.30;3.25;;;17.30;99.90;;;;;;5022129;28;20026;-71
2023/09/07 01:52:25;;;;;;;7.10;3.97;;;17.30;99.90;;;;;;5039494;28;20028;-71
2023/09/07 01:54:50;;;;;;;5.47;3.38;;;17.30;99.90;;;;;;5039755;28;20049;-71
2023/09/07 01:57:16;;;;;;;5.13;3.10;;;17.20;99.90;;;;;;5022000;28;20091;-72
2023/09/07 01:59:41;;;;;;;6.90;3.63;;;17.20;99.90;;;;;;5039208;28;20029;-71
2023/09/07 02:02:07;;;;;;;5.03;3.00;;;17.20;99.90;;;;;;5022245;28;20093;-71
2023/09/07 02:04:33;;;;;;;5.28;2.83;;;17.20;99.90;;;;;;5039180;28;20052;-71
2023/09/07 02:06:58;;;;;;;8.75;3.83;;;17.00;99.90;;;;;;5021922;28;20041;-71
2023/09/07 02:09:24;;;;;;;5.70;2.65;;;16.90;99.90;;;;;;5039141;28;20030;-71
2023/09/07 02:11:49;;;;;;;4.78;2.60;;;17.00;99.90;;;;;;5039096;28;20053;-71
2023/09/07 02:14:15;;;;;;;3.88;2.97;;;17.00;99.90;;;;;;5021648;28;20115;-71
2023/09/07 02:16:41;;;;;;;7.88;3.40;;;17.00;99.90;;;;;;5039003;28;20033;-71
2023/09/07 02:19:07;;;;;;;5.32;2.53;;;17.00;99.90;;;;;;5021838;28;20022;-71
2023/09/07 02:21:32;;;;;;;7.95;3.45;;;17.10;99.90;;;;;;5021064;28;20025;-72
2023/09/07 02:23:58;;;;;;;5.88;4.03;;;17.00;99.90;;;;;;5022168;28;20030;-71
2023/09/07 02:26:24;;;;;;;6.57;3.58;;;17.10;99.90;;;;;;5038748;28;20029;-71
2023/09/07 02:28:49;;;;;;;6.15;3.92;;;17.30;99.90;;;;;;5022308;28;20044;-71
2023/09/07 02:31:15;;;;;;;7.70;4.15;;;17.50;99.90;;;;;;5021346;28;20033;-71
2023/09/07 02:33:40;;;;;;;8.13;4.25;;;17.40;99.90;;;;;;5021263;28;20025;-71
2023/09/07 02:36:06;;;;;;;6.05;4.07;;;17.50;99.90;;;;;;5021017;28;20075;-71
2023/09/07 02:38:31;;;;;;;8.40;3.90;;;17.60;99.90;;;;;;5021502;28;20021;-71
2023/09/07 02:40:57;;;;;;;7.07;3.80;;;17.70;99.90;;;;;;5021160;28;20109;-71
2023/09/07 02:43:23;;;;;;;7.68;3.38;;;17.70;99.90;;;;;;5021060;28;20029;-71
2023/09/07 02:45:50;;;;;;;5.03;3.35;;;17.80;99.90;;;;;;5038448;28;20025;-71
2023/09/07 02:48:15;;;;;;;6.65;3.70;;;17.80;99.90;;;;;;5020964;28;20018;-71
2023/09/07 02:50:42;;;;;;;8.27;3.38;;;17.50;99.90;;;;;;5021364;28;20022;-71
2023/09/07 02:53:08;;;;;;;5.47;3.35;;;17.50;99.90;;;;;;5038760;28;20021;-71
2023/09/07 02:55:34;;;;;;;4.70;2.80;;;17.30;99.90;;;;;;5020981;28;20037;-71
2023/09/07 02:58:02;;;;;;;7.00;3.20;;;17.20;99.90;;;;;;5020974;28;20036;-71
2023/09/07 03:00:28;;;;;;;11.02;3.30;;;17.10;99.90;;;;;;5020721;28;20033;-71
2023/09/07 03:02:54;;;;;;;6.15;2.50;;;17.00;99.90;;;;;;5020651;28;20025;-71
2023/09/07 03:05:19;;;;;;;5.00;2.65;;;16.90;99.90;;;;;;5020551;28;20022;-71
2023/09/07 03:07:46;;;;;;;5.13;2.63;;;16.80;99.90;;;;;;5020585;28;20030;-71
2023/09/07 03:10:12;;;;;;;7.00;3.45;;;16.80;99.90;;;;;;5037988;28;20080;-71
2023/09/07 03:12:37;;;;;;;4.80;3.05;;;16.80;99.90;;;;;;5020864;28;20018;-71
2023/09/07 03:15:04;;;;;;;4.97;3.35;;;16.90;99.90;;;;;;5021112;28;20125;-71
2023/09/07 03:17:30;;;;;;;9.02;3.33;;;16.80;99.90;;;;;;5020348;28;20083;-71
2023/09/07 03:19:55;;;;;;;10.45;3.35;;;16.70;99.90;;;;;;5038104;28;20018;-71
2023/09/07 03:22:22;;;;;;;6.57;3.17;;;16.60;99.90;;;;;;5020470;28;20071;-71
2023/09/07 03:24:50;;;;;;;5.88;3.22;;;16.60;99.90;;;;;;5037700;28;20025;-72
2023/09/07 03:27:15;;;;;;;9.52;3.53;;;16.60;99.90;;;;;;5037667;28;20045;-71
2023/09/07 03:29:41;;;;;;;9.60;3.60;;;16.60;99.90;;;;;;5037528;28;20099;-71
2023/09/07 03:32:08;;;;;;;6.47;2.85;;;16.50;99.90;;;;;;5019967;28;20021;-71
2023/09/07 03:34:34;;;;;;;14.57;3.80;;;16.50;99.90;;;;;;5019522;28;20057;-71
2023/09/07 03:37:00;;;;;;;6.53;4.20;;;16.50;99.90;;;;;;5037702;28;20052;-71
2023/09/07 03:39:25;;;;;;;9.20;4.72;;;16.50;99.90;;;;;;5037471;28;20033;-71
2023/09/07 03:41:52;;;;;;;10.25;4.15;;;16.60;99.90;;;;;;5020646;28;20021;-71
2023/09/07 03:44:17;;;;;;;7.80;3.53;;;16.80;99.90;;;;;;5037327;28;20089;-71
2023/09/07 03:46:43;;;;;;;13.20;3.97;;;16.70;99.90;;;;;;5020631;28;20052;-71
2023/09/07 03:49:08;;;;;;;9.27;3.45;;;16.60;99.90;;;;;;5020093;28;20022;-71
2023/09/07 03:51:34;;;;;;;7.88;3.58;;;16.50;99.90;;;;;;5019993;28;20112;-71
2023/09/07 03:53:59;;;;;;;15.27;4.15;;;16.60;99.90;;;;;;5037141;28;20100;-71
2023/09/07 03:56:25;;;;;;;6.22;3.72;;;16.60;99.90;;;;;;5020156;28;20026;-71
2023/09/07 03:58:51;;;;;;;4.53;3.60;;;16.70;99.90;;;;;;5037086;28;20029;-71
2023/09/07 04:01:16;;;;;;;9.23;4.70;;;16.70;99.90;;;;;;5020249;28;20033;-71
2023/09/07 04:03:42;;;;;;;6.72;3.58;;;16.80;99.90;;;;;;5020184;28;20029;-71
2023/09/07 04:06:08;;;;;;;9.23;3.97;;;16.90;99.90;;;;;;5019717;28;20021;-71
2023/09/07 04:08:33;;;;;;;6.43;3.40;;;16.70;99.90;;;;;;5019776;28;20075;-71
2023/09/07 04:11:04;;;;;;;6.10;3.60;;;16.60;99.90;;;;;;5020150;28;20108;-71
2023/09/07 04:13:29;;;;;;;8.57;3.70;;;16.50;99.90;;;;;;5020422;28;20049;-71
2023/09/07 04:15:55;;;;;;;8.00;3.83;;;16.60;99.90;;;;;;5020057;28;20025;-71
2023/09/07 04:18:21;;;;;;;7.30;3.65;;;16.70;99.90;;;;;;5019664;28;20083;-71
2023/09/07 04:20:46;;;;;;;5.32;3.72;;;16.60;99.90;;;;;;5019671;28;20025;-71
2023/09/07 04:23:12;;;;;;;6.47;3.15;;;16.60;99.90;;;;;;5019457;28;20032;-71
2023/09/07 04:25:39;;;;;;;5.53;3.25;;;16.60;99.90;;;;;;5019452;28;20041;-67
2023/09/07 04:28:05;;;;;;;7.90;3.28;;;16.60;99.90;;;;;;5019565;28;20052;-64
2023/09/07 04:30:30;;;;;;;7.70;3.67;;;16.50;99.90;;;;;;5019675;28;20174;-64
2023/09/07 04:32:56;;;;;;;6.20;3.60;;;16.40;99.90;;;;;;5019562;28;20032;-64
2023/09/07 04:35:30;;;;;;;5.75;3.40;;;16.30;99.90;;;;;;5019370;28;20022;-71
2023/09/07 04:37:56;;;;;;;9.30;4.13;;;16.10;99.90;;;;;;5036862;28;20029;-71
2023/09/07 04:40:22;;;;;;;6.32;3.72;;;16.10;99.90;;;;;;5020181;28;20032;-71
2023/09/07 04:42:48;;;;;;;6.82;3.58;;;16.20;99.90;;;;;;5036568;28;20041;-64
2023/09/07 04:45:13;;;;;;;7.85;3.58;;;16.10;99.90;;;;;;5038925;28;20029;-64
2023/09/07 04:47:39;;;;;;;5.90;3.78;;;16.20;99.90;;;;;;5023465;28;20076;-65
2023/09/07 04:50:06;;;;;;;5.07;3.38;;;16.30;99.90;;;;;;5024105;28;20021;-64
2023/09/07 04:52:31;;;;;;;7.10;3.90;;;16.30;99.90;;;;;;5040525;28;20025;-64
2023/09/07 04:54:57;;;;;;;5.07;3.55;;;16.40;99.90;;;;;;5040432;28;20048;-64
2023/09/07 04:57:22;;;;;;;10.07;3.92;;;16.40;99.90;;;;;;5023036;28;20032;-64
2023/09/07 04:59:48;;;;;;;7.50;3.83;;;16.50;99.90;;;;;;5023953;28;20014;-64
2023/09/07 05:02:13;;;;;;;7.20;4.57;;;16.60;99.90;;;;;;5023402;28;20029;-64
2023/09/07 05:04:39;;;;;;;7.68;4.15;;;16.60;99.90;;;;;;5022761;28;20025;-64
2023/09/07 05:07:04;;;;;;;8.88;4.00;;;16.50;99.90;;;;;;5040450;28;20025;-64
2023/09/07 05:09:31;;;;;;;18.20;4.68;;;16.50;99.90;;;;;;5022956;28;20025;-71
2023/09/07 05:11:56;;;;;;;10.43;4.43;;;16.50;99.90;;;;;;5022841;28;20027;-71
2023/09/07 05:14:24;;;;;;;10.57;4.55;;;16.60;99.90;;;;;;5022645;28;20034;-64
2023/09/07 05:16:50;;;;;;;6.10;4.38;;;16.70;99.90;;;;;;5022793;28;20032;-64
2023/09/07 05:19:15;;;;;;;6.05;4.18;;;16.60;99.90;;;;;;5022593;28;20021;-64
2023/09/07 05:21:41;;;;;;;6.82;4.43;;;16.70;99.90;;;;;;5022678;28;20029;-64
2023/09/07 05:24:07;;;;;;;8.20;4.57;;;16.80;99.90;;;;;;5039674;28;20029;-68
2023/09/07 05:26:32;;;;;;;7.00;4.15;;;16.70;99.90;;;;;;5023604;28;20109;-69
2023/09/07 05:28:58;;;;;;;7.63;4.25;;;16.80;99.90;;;;;;5040378;28;20026;-64
2023/09/07 05:31:23;;;;;;;8.13;4.25;;;16.90;99.90;;;;;;5039666;28;20017;-64
2023/09/07 05:33:49;;;;;;;19.42;6.18;;;16.80;99.90;;;;;;5022948;28;20021;-64
2023/09/07 05:36:14;;;;;;;6.10;4.18;;;16.70;99.90;;;;;;5022201;28;20036;-64
2023/09/07 05:38:40;;;;;;;11.73;4.43;;;16.80;99.90;;;;;;5023416;28;20026;-71
2023/09/07 05:41:06;;;;;;;7.20;3.95;;;16.80;99.90;;;;;;5022531;28;20072;-70
2023/09/07 05:43:32;;;;;;;8.98;4.22;;;16.80;99.90;;;;;;5039635;28;20025;-64
2023/09/07 05:45:57;;;;;;;6.97;4.50;;;16.80;99.90;;;;;;5022473;28;20025;-71
2023/09/07 05:48:23;;;;;;;7.63;4.32;;;16.80;99.90;;;;;;5022315;28;20018;-71
2023/09/07 05:50:48;;;;;;;6.15;4.28;;;16.90;99.90;;;;;;5022209;28;20025;-64
2023/09/07 05:53:14;;;;;;;9.55;4.13;;;17.00;99.90;;;;;;5022074;28;20021;-64
2023/09/07 05:55:40;;;;;;;7.38;3.97;;;17.00;99.90;;;;;;5038608;28;20025;-64
2023/09/07 05:58:06;;;;;;;8.02;4.70;;;17.00;99.90;;;;;;5039057;28;20036;-64
2023/09/07 06:00:33;;;;;;;6.68;4.22;;;17.00;99.90;;;;;;5021677;28;20029;-64
2023/09/07 06:02:59;;;;;;;9.82;4.40;;;17.10;99.90;;;;;;5021732;28;20132;-64
2023/09/07 06:05:24;;;;;;;12.98;4.03;;;17.20;99.90;;;;;;5021817;28;20057;-64
2023/09/07 06:07:50;;;;;;;12.30;4.03;;;17.30;99.90;;;;;;5039264;28;20026;-64
2023/09/07 06:10:17;;;;;;;6.97;4.18;;;17.10;99.90;;;;;;5021651;28;20063;-64
2023/09/07 06:12:42;;;;;;;9.57;4.50;;;17.20;99.90;;;;;;5022686;28;20113;-64
2023/09/07 06:15:09;;;;;;;8.38;4.38;;;17.20;99.90;;;;;;5021521;28;20059;-64
2023/09/07 06:17:34;;;;;;;6.43;4.20;;;17.30;99.90;;;;;;5021925;28;20025;-64
2023/09/07 06:20:00;;;;;;;6.03;4.00;;;17.40;99.90;;;;;;5021922;28;20067;-64
2023/09/07 06:22:25;;;;;;;7.50;4.50;;;17.50;99.90;;;;;;5021497;28;20036;-64
2023/09/07 06:24:51;;;;;;;6.38;4.30;;;17.60;99.90;;;;;;5021321;28;20033;-64
2023/09/07 06:27:16;;;;;;;9.38;4.32;;;17.60;99.90;;;;;;5038953;28;20021;-64
2023/09/07 06:29:42;;;;;;;7.90;4.75;;;17.70;99.90;;;;;;5021607;28;20028;-64
2023/09/07 06:32:07;;;;;;;7.40;4.53;;;17.70;99.90;;;;;;5021969;28;20021;-64
2023/09/07 06:34:33;;;;;;;9.35;4.15;;;17.90;99.90;;;;;;5021575;28;20025;-64
2023/09/07 06:36:58;;;;;;;9.45;3.90;;;17.90;99.90;;;;;;5021231;28;20029;-65
2023/09/07 06:39:24;;;;;;;5.32;4.43;;;17.90;99.90;;;;;;5021501;28;20025;-64
2023/09/07 06:41:50;;;;;;;12.13;5.07;;;18.00;99.90;;;;;;5021146;28;20025;-64
2023/09/07 06:44:15;;;;;;;10.32;4.55;;;18.00;99.90;;;;;;5021473;28;20075;-64
2023/09/07 06:46:41;;;;;;;9.45;4.65;;;18.00;99.90;;;;;;5038619;28;20095;-64
2023/09/07 06:49:06;;;;;;;6.78;4.22;;;18.10;99.90;;;;;;5021292;28;20028;-64
2023/09/07 06:51:32;;;;;;;6.68;4.63;;;18.20;99.90;;;;;;5021282;28;20025;-64
2023/09/07 06:53:58;;;;;;;6.85;4.57;;;18.20;99.90;;;;;;5020863;28;20112;-65
2023/09/07 06:56:24;;;;;;;6.78;4.75;;;18.20;99.90;;;;;;5020995;28;20068;-64
2023/09/07 06:58:49;;;;;;;9.55;4.57;;;18.30;99.90;;;;;;5020802;28;20079;-64
2023/09/07 07:01:15;;;;;;;9.32;4.18;;;18.40;99.90;;;;;;5038321;28;20021;-64
2023/09/07 07:03:41;;;;;;;8.45;4.18;;;18.50;99.90;;;;;;5020623;28;20021;-65
2023/09/07 07:06:06;;;;;;;6.93;4.45;;;18.50;99.90;;;;;;5037948;28;20021;-65
2023/09/07 07:08:32;;;;;;;12.38;4.18;;;18.60;99.90;;;;;;5020818;28;20025;-64
2023/09/07 07:10:57;;;;;;;6.88;4.03;;;18.60;99.90;;;;;;5020667;28;20021;-64
2023/09/07 07:13:23;;;;;;;7.90;4.30;;;18.60;99.90;;;;;;5020911;28;20033;-64
2023/09/07 07:15:48;;;;;;;7.63;4.47;;;18.70;99.90;;;;;;5020423;28;20028;-65
2023/09/07 07:18:14;;;;;;;6.85;3.97;;;18.80;99.90;;;;;;5020531;28;20131;-64
2023/09/07 07:20:41;;;;;;;5.70;4.15;;;18.90;99.90;;;;;;5021277;28;20029;-64
2023/09/07 07:23:07;;;;;;;8.43;4.25;;;19.10;99.90;;;;;;5020270;28;20025;-64
2023/09/07 07:25:33;;;;;;;6.30;4.38;;;19.10;99.90;;;;;;5020584;28;20034;-64
2023/09/07 07:28:05;;;;;;;7.22;4.70;;;19.00;99.90;;;;;;5037761;28;20022;-64
2023/09/07 07:30:31;;;;;;;8.20;4.25;;;19.00;99.90;;;;;;5021461;28;20021;-64
2023/09/07 07:32:57;;;;;;;7.22;4.50;;;19.10;99.90;;;;;;5020664;28;20013;-64
2023/09/07 07:35:23;;;;;;;7.65;4.25;;;19.30;99.90;;;;;;5020532;28;20028;-64
2023/09/07 07:37:49;;;;;;;10.10;4.28;;;19.30;99.90;;;;;;5037537;28;20104;-64
2023/09/07 07:40:15;;;;;;;8.68;4.43;;;19.40;99.90;;;;;;5037543;28;20113;-64
2023/09/07 07:42:41;;;;;;;6.03;4.50;;;19.50;99.90;;;;;;5020090;28;20053;-64
2023/09/07 07:45:08;;;;;;;8.15;4.25;;;19.60;99.90;;;;;;5037849;28;20104;-64
2023/09/07 07:47:33;;;;;;;5.50;3.60;;;19.60;99.90;;;;;;5020207;28;20025;-63
2023/09/07 07:49:59;;;;;;;11.52;4.25;;;19.70;99.90;;;;;;5020215;28;20025;-63
2023/09/07 07:52:24;;;;;;;6.10;4.07;;;19.80;99.90;;;;;;5020099;28;20025;-63
2023/09/07 07:54:50;;;;;;;8.52;4.50;;;19.90;99.90;;;;;;5037369;28;20027;-64
2023/09/07 07:57:15;;;;;;;4.40;3.60;;;20.00;99.90;;;;;;5020520;28;20038;-63
2023/09/07 07:59:41;;;;;;;9.77;4.32;;;20.00;99.90;;;;;;5020256;28;20061;-63
2023/09/07 08:02:06;;;;;;;5.45;3.85;;;20.00;99.90;;;;;;5019849;28;20026;-63
2023/09/07 08:04:33;;;;;;;8.40;4.68;;;20.20;99.90;;;;;;5019652;28;20028;-63
2023/09/07 08:07:03;;;;;;;5.68;3.92;;;20.30;99.90;;;;;;5037071;28;20048;-63
2023/09/07 08:09:29;;;;;;;5.97;4.15;;;20.40;99.90;;;;;;5037229;28;20025;-63
2023/09/07 08:11:55;;;;;;;10.02;5.00;;;20.50;99.90;;;;;;5020498;28;20087;-63
2023/09/07 08:14:22;;;;;;;7.63;4.22;;;20.50;99.90;;;;;;5036821;28;20100;-63
2023/09/07 08:16:47;;;;;;;6.75;3.83;;;20.60;99.90;;;;;;5019624;28;20022;-63
2023/09/07 08:19:14;;;;;;;7.10;4.40;;;20.70;99.90;;;;;;5036477;28;20021;-64
2023/09/07 08:21:42;;;;;;;6.95;4.05;;;20.80;99.90;;;;;;5037332;28;20025;-64
2023/09/07 08:24:08;;;;;;;9.68;4.88;;;20.90;99.90;;;;;;5020275;28;20026;-64
2023/09/07 08:26:33;;;;;;;9.70;4.43;;;21.00;99.90;;;;;;5037195;28;20034;-64
2023/09/07 08:28:59;;;;;;;4.88;3.78;;;21.00;99.90;;;;;;5019497;28;20029;-63
2023/09/07 08:31:24;;;;;;;7.60;3.90;;;21.10;99.90;;;;;;5019422;28;20079;-63
2023/09/07 08:33:51;;;;;;;8.50;4.20;;;21.20;99.90;;;;;;5020133;28;20026;-63
2023/09/07 08:36:22;;;;;;;13.65;4.28;;;21.30;99.90;;;;;;5036834;28;20018;-63
2023/09/07 08:38:47;;;;;;;10.85;4.20;;;21.40;99.90;;;;;;5037029;28;20021;-63
2023/09/07 08:41:14;;;;;;;6.72;4.10;;;21.50;99.90;;;;;;5037025;28;20026;-63
2023/09/07 08:43:46;;;;;;;10.70;5.45;;;21.60;99.90;;;;;;5019597;28;20117;-63
2023/09/07 08:46:17;;;;;;;9.93;4.68;;;21.70;99.90;;;;;;5020574;28;20025;-63
2023/09/07 08:48:46;;;;;;;10.38;3.90;;;21.80;99.90;;;;;;5019311;28;20021;-63
2023/09/07 08:51:14;;;;;;;8.57;4.13;;;21.80;99.90;;;;;;5019527;28;20029;-63
2023/09/07 08:53:41;;;;;;;10.23;4.63;;;22.00;99.90;;;;;;5019581;28;20022;-63
2023/09/07 08:56:10;;;;;;;9.55;4.55;;;22.10;99.90;;;;;;5020055;28;20029;-63
2023/09/07 08:58:40;;;;;;;10.82;3.88;;;22.20;99.90;;;;;;5019517;28;20029;-63
2023/09/07 09:01:06;;;;;;;9.82;3.80;;;22.20;99.90;;;;;;5019505;28;20084;-63
2023/09/07 09:03:31;;;;;;;12.02;4.70;;;22.30;99.90;;;;;;5036819;28;20124;-63
2023/09/07 09:05:57;;;;;;;8.32;4.35;;;22.40;99.90;;;;;;5019363;28;20022;-63
2023/09/07 09:08:24;;;;;;;6.53;4.20;;;22.50;99.90;;;;;;5019100;28;20021;-63
2023/09/07 09:10:59;;;;;;;8.15;3.85;;;22.60;99.90;;;;;;5019399;28;20084;-63
2023/09/07 09:13:31;;;;;;;8.10;4.20;;;22.70;99.90;;;;;;5019118;28;20029;-63
2023/09/07 09:16:00;;;;;;;7.15;4.10;;;22.80;99.90;;;;;;5019094;28;20120;-63
2023/09/07 09:18:26;;;;;;;7.50;4.05;;;22.90;99.90;;;;;;5019881;28;20029;-63
2023/09/07 09:20:52;;;;;;;7.60;3.97;;;23.00;99.90;;;;;;5019334;28;20116;-63
2023/09/07 09:23:18;;;;;;;11.93;4.15;;;23.00;99.90;;;;;;5019439;28;20113;-63
2023/09/07 09:25:44;;;;;;;11.55;5.05;;;23.10;99.90;;;;;;5018963;28;20033;-63
2023/09/07 09:28:10;;;;;;;4.68;3.75;;;23.30;99.90;;;;;;5019721;28;20029;-63
2023/09/07 09:30:36;;;;;;;7.68;3.65;;;23.40;99.90;;;;;;5018965;28;20022;-63
2023/09/07 09:33:05;;;;;;;9.23;4.18;;;23.50;99.90;;;;;;5022595;28;20026;-63
2023/09/07 09:35:31;;;;;;;6.20;3.85;;;23.50;99.90;;;;;;5023551;28;20017;-63
2023/09/07 09:38:04;;;;;;;6.35;4.45;;;23.50;99.90;;;;;;5022595;28;20022;-63
2023/09/07 09:40:30;;;;;;;9.93;4.53;;;23.80;99.90;;;;;;5023176;28;20075;-63
2023/09/07 09:42:59;;;;;;;6.78;4.22;;;24.00;99.90;;;;;;5022479;28;20120;-63
2023/09/07 09:45:27;;;;;;;9.13;3.88;;;24.00;99.90;;;;;;5022410;28;20021;-63
2023/09/07 09:47:55;;;;;;;8.40;4.32;;;24.00;99.90;;;;;;5023123;28;20021;-63
2023/09/07 09:50:22;;;;;;;5.80;3.97;;;24.10;99.90;;;;;;5022438;28;20105;-63
2023/09/07 09:52:48;;;;;;;10.27;4.60;;;24.30;99.90;;;;;;5022357;28;20022;-63
2023/09/07 09:55:15;;;;;;;8.20;4.63;;;24.30;99.90;;;;;;5022709;28;20033;-63
2023/09/07 09:57:41;;;;;;;6.65;4.00;;;24.50;99.90;;;;;;5022812;28;20021;-63
2023/09/07 10:00:25;;;;;;;5.20;4.35;;;24.80;99.90;;;;;;5022345;28;20032;-63
2023/09/07 10:03:28;;;;;;;6.38;4.07;;;24.80;99.90;;;;;;5022567;28;20018;-63
2023/09/07 10:05:53;;;;;;;9.75;4.97;;;24.90;99.90;;;;;;5021824;28;20024;-63
2023/09/07 10:08:20;;;;;;;13.30;4.70;;;25.00;99.90;;;;;;5022651;28;20018;-63
2023/09/07 10:10:53;;;;;;;6.82;4.55;;;25.10;99.90;;;;;;5022311;28;20025;-63
2023/09/07 10:13:30;;;;;;;5.90;3.90;;;25.20;99.90;;;;;;5021953;28;20088;-63
2023/09/07 10:16:08;;;;;;;9.00;4.47;;;25.30;99.90;;;;;;5022527;28;20112;-63
2023/09/07 10:18:38;;;;;;;6.55;4.28;;;25.90;99.90;;;;;;5022330;28;20028;-63
2023/09/07 10:21:04;;;;;;;6.47;4.43;;;26.10;99.90;;;;;;5021880;28;20064;-64
2023/09/07 10:23:41;;;;;;;7.35;4.65;;;26.20;99.90;;;;;;5022307;28;20071;-63
2023/09/07 10:26:15;;;;;;;12.10;4.45;;;26.30;99.90;;;;;;5021665;28;20051;-63
2023/09/07 10:28:41;;;;;;;10.98;5.05;;;26.50;99.90;;;;;;5021476;28;20017;-63
2023/09/07 10:31:10;;;;;;;7.70;3.92;;;26.80;99.90;;;;;;5021431;28;20028;-64
2023/09/07 10:33:36;;;;;;;4.78;4.30;;;27.20;99.90;;;;;;5021636;28;20025;-65
2023/09/07 10:36:03;;;;;;;7.85;4.13;;;27.60;99.90;;;;;;5021226;28;20052;-63
2023/09/07 10:38:30;;;;;;;10.23;4.35;;;27.80;99.90;;;;;;5021582;28;20029;-63
2023/09/07 10:40:57;;;;;;;6.63;3.92;;;28.00;99.90;;;;;;5021181;28;20025;-63
2023/09/07 10:43:30;;;;;;;5.32;4.03;;;28.00;99.90;;;;;;5021075;28;20022;-63
2023/09/07 10:45:57;;;;;;;7.22;3.80;;;28.30;99.90;;;;;;5021471;28;20108;-63
2023/09/07 10:48:28;;;;;;;9.52;4.10;;;28.30;99.90;;;;;;5021831;28;20057;-63
2023/09/07 10:50:54;;;;;;;7.78;4.13;;;28.40;99.90;;;;;;5021627;28;20048;-63
2023/09/07 10:53:31;;;;;;;5.35;4.28;;;28.80;99.90;;;;;;5021220;28;20017;-64
2023/09/07 10:55:59;;;;;;;5.55;4.20;;;29.20;99.90;;;;;;5021948;28;20064;-63
2023/09/07 10:58:31;;;;;;;8.02;3.88;;;29.60;99.90;;;;;;5020639;28;20025;-63
2023/09/07 11:00:57;;;;;;;7.13;3.67;;;29.60;99.90;;;;;;5020897;28;20028;-64
2023/09/07 11:03:24;;;;;;;7.22;4.00;;;29.60;99.90;;;;;;5020923;28;20083;-64
2023/09/07 11:05:51;;;;;;;7.45;4.13;;;30.10;99.90;;;;;;5020941;28;20079;-63
2023/09/07 11:08:16;;;;;;;13.35;4.85;;;31.10;99.90;;;;;;5020841;28;20025;-63
2023/09/07 11:10:42;;;;;;;8.38;3.97;;;31.60;99.90;;;;;;5020849;28;20021;-63
2023/09/07 11:13:09;;;;;;;10.10;3.72;;;30.80;99.90;;;;;;5021683;28;20049;-63
2023/09/07 11:15:35;;;;;;;5.22;3.58;;;30.50;99.90;;;;;;5020948;28;20061;-63
2023/09/07 11:18:07;;;;;;;5.43;3.78;;;30.60;99.90;;;;;;5021102;28;20021;-63
2023/09/07 11:20:34;;;;;;;4.40;3.50;;;30.80;99.90;;;;;;5021208;28;20105;-63
2023/09/07 11:23:00;;;;;;;6.65;3.78;;;30.50;99.90;;;;;;5020620;28;20053;-63
2023/09/07 11:25:26;;;;;;;8.50;3.80;;;30.50;99.90;;;;;;5020570;28;20033;-63
2023/09/07 11:27:54;;;;;;;5.63;3.90;;;30.40;99.90;;;;;;5041098;22;20130;-69
2023/09/07 11:30:21;;;;;;;8.30;4.93;;;30.50;99.90;;;;;;5018170;28;20022;-69
2023/09/07 11:32:47;;;;;;;7.05;4.00;;;30.40;99.90;;;;;;5017981;28;20022;-69
2023/09/07 11:35:13;;;;;;;9.93;3.97;;;30.40;99.90;;;;;;5017736;28;20121;-69
2023/09/07 11:37:40;;;;;;;5.03;4.15;;;30.70;99.90;;;;;;5017062;28;20124;-69
2023/09/07 11:40:11;;;;;;;8.15;4.53;;;30.90;99.90;;;;;;5016903;28;20025;-70
2023/09/07 11:42:38;;;;;;;11.93;4.53;;;31.30;99.90;;;;;;5016828;28;20027;-70
2023/09/07 11:45:06;;;;;;;9.77;4.32;;;31.50;99.90;;;;;;5017002;28;20109;-69
2023/09/07 11:47:32;;;;;;;8.75;4.60;;;31.20;99.90;;;;;;5016611;28;20037;-69
2023/09/07 11:49:57;;;;;;;4.63;3.75;;;31.40;99.90;;;;;;5017418;28;20018;-70
2023/09/07 11:52:23;;;;;;;7.10;3.75;;;31.70;99.90;;;;;;5016673;28;20096;-70
2023/09/07 11:54:49;;;;;;;5.10;3.90;;;31.80;99.90;;;;;;5016707;28;20036;-69
2023/09/07 11:57:16;;;;;;;8.40;4.25;;;31.70;99.90;;;;;;5016955;28;20121;-69
2023/09/07 11:59:41;;;;;;;4.13;3.55;;;31.90;99.90;;;;;;5016563;28;20061;-70
2023/09/07 12:02:07;;;;;;;12.98;3.90;;;32.50;99.90;;;;;;5016696;28;20025;-70
2023/09/07 12:04:33;;;;;;;5.78;3.30;;;33.10;99.90;;;;;;5016427;28;20062;-70
2023/09/07 12:06:59;;;;;;;6.68;3.22;;;32.70;99.90;;;;;;5017268;28;20052;-70
2023/09/07 12:09:24;;;;;;;4.68;4.18;;;32.70;99.90;;;;;;5016555;28;20018;-70
2023/09/07 12:11:50;;;;;;;5.22;3.80;;;32.70;99.60;;;;;;5016510;28;20022;-70
2023/09/07 12:14:15;;;;;;;5.80;3.08;;;32.70;98.60;;;;;;5017453;28;20041;-69
2023/09/07 12:16:41;;;;;;;5.22;3.22;;;32.60;97.00;;;;;;5016609;28;20025;-69
2023/09/07 12:19:06;;;;;;;4.30;3.40;;;32.50;95.80;;;;;;5016310;28;20112;-70
2023/09/07 12:21:32;;;;;;;6.32;3.28;;;32.40;95.50;;;;;;5016236;28;20065;-70
2023/09/07 12:23:57;;;;;;;7.60;3.05;;;32.30;94.60;;;;;;5016259;28;20113;-70
2023/09/07 12:26:23;;;;;;;3.75;3.33;;;32.20;94.70;;;;;;5017628;28;20096;-70
2023/09/07 12:28:48;;;;;;;4.68;2.90;;;32.00;94.80;;;;;;5016139;28;20045;-70
2023/09/07 12:31:14;;;;;;;3.50;3.05;;;32.00;95.40;;;;;;5017232;28;20073;-70
2023/09/07 12:33:40;;;;;;;3.63;3.17;;;31.70;94.60;;;;;;5017133;28;20026;-69
2023/09/07 12:36:09;;;;;;;5.43;3.25;;;31.80;97.70;;;;;;5016218;28;20034;-70
2023/09/07 12:38:34;;;;;;;4.97;3.05;;;31.80;96.00;;;;;;5017004;28;20104;-70
2023/09/07 12:41:00;;;;;;;3.33;3.03;;;31.90;97.00;;;;;;5017234;28;20084;-70